Time;durP1;ratioP1;P1;durP2;ratioP2;P2;SDS_P1;SDS_P2;PMS_P1;PMS_P2;Temp;Humidity;BMP_temperature;BMP_pressure;BME280_temperature;BME280_humidity;BME280_pressure;Samples;Min_cycle;Max_cycle;Signal;HPM_P1;HPM_P2
2023/09/12 00:02:02;;;;;;;13.73;11.90;;;;;;;22.61;71.28;100577.16;5093105;28;20431;-71
2023/09/12 00:04:32;;;;;;;15.97;12.23;;;;;;;22.56;71.20;100577.09;5093299;28;20997;-71
2023/09/12 00:07:03;;;;;;;14.80;12.15;;;;;;;22.60;70.91;100578.22;5093240;28;20427;-71
2023/09/12 00:09:33;;;;;;;14.48;12.02;;;;;;;22.57;70.93;100558.78;5092697;28;20452;-71
2023/09/12 00:12:03;;;;;;;16.00;11.98;;;;;;;22.56;71.46;100560.72;5092702;28;20471;-71
2023/09/12 00:14:32;;;;;;;17.07;12.50;;;;;;;22.54;71.45;100549.19;5092575;28;20425;-71
2023/09/12 00:17:00;;;;;;;17.70;12.60;;;;;;;22.50;71.83;100545.28;5092639;28;20424;-71
2023/09/12 00:19:31;;;;;;;15.18;12.07;;;;;;;22.51;71.50;100533.31;5093096;28;20446;-70
2023/09/12 00:22:01;;;;;;;14.18;12.13;;;;;;;22.46;71.26;100524.22;5092819;28;20428;-70
2023/09/12 00:24:29;;;;;;;16.20;12.02;;;;;;;22.54;71.36;100524.63;5092299;28;20936;-70
2023/09/12 00:26:59;;;;;;;13.70;12.30;;;;;;;22.56;71.58;100522.50;5092697;28;20909;-71
2023/09/12 00:29:30;;;;;;;16.40;12.05;;;;;;;22.59;71.64;100527.47;5092835;28;20432;-71
2023/09/12 00:32:02;;;;;;;16.27;12.25;;;;;;;22.55;71.31;100548.13;5093396;28;20448;-71
2023/09/12 00:34:32;;;;;;;16.60;12.70;;;;;;;22.34;72.41;100562.44;5092566;28;20431;-71
2023/09/12 00:37:00;;;;;;;14.33;12.83;;;;;;;22.21;73.21;100554.53;5093476;28;20420;-71
2023/09/12 00:39:30;;;;;;;15.85;13.05;;;;;;;22.06;73.86;100560.47;5092322;28;20433;-71
2023/09/12 00:41:58;;;;;;;17.50;12.90;;;;;;;22.08;74.26;100541.16;5092760;28;20420;-71
2023/09/12 00:44:28;;;;;;;16.15;12.82;;;;;;;22.02;73.88;100539.41;5092800;28;20577;-71
2023/09/12 00:46:57;;;;;;;16.42;13.00;;;;;;;22.02;74.27;100525.78;5092224;28;20507;-71
2023/09/12 00:49:28;;;;;;;15.80;12.30;;;;;;;22.10;73.73;100512.59;5092574;28;20468;-71
2023/09/12 00:52:01;;;;;;;17.63;12.97;;;;;;;22.18;72.87;100517.66;5092687;28;20513;-71
2023/09/12 00:54:30;;;;;;;15.35;13.02;;;;;;;22.15;73.15;100517.31;5092484;28;20424;-71
2023/09/12 00:56:59;;;;;;;18.50;13.20;;;;;;;22.16;73.42;100508.06;5093345;28;20208;-71
2023/09/12 00:59:29;;;;;;;13.90;12.50;;;;;;;22.13;73.43;100497.63;5092068;28;20425;-71
2023/09/12 01:01:58;;;;;;;16.92;12.82;;;;;;;22.07;73.70;100504.06;5091838;28;20429;-71
2023/09/12 01:04:26;;;;;;;17.35;13.60;;;;;;;22.07;73.93;100506.78;5092487;28;20483;-71
2023/09/12 01:07:05;;;;;;;15.80;13.00;;;;;;;22.01;73.31;100508.59;5092257;28;20961;-71
2023/09/12 01:09:34;;;;;;;16.75;12.60;;;;;;;22.04;73.82;100502.66;5092229;28;20452;-71
2023/09/12 01:12:03;;;;;;;14.80;12.57;;;;;;;22.07;73.64;100507.63;5092225;28;20482;-71
2023/09/12 01:14:33;;;;;;;15.40;12.85;;;;;;;21.99;74.04;100504.41;5092174;28;20759;-71
2023/09/12 01:17:02;;;;;;;15.55;12.80;;;;;;;22.03;73.82;100511.06;5092298;28;20421;-70
2023/09/12 01:19:32;;;;;;;15.48;12.98;;;;;;;21.93;74.50;100505.38;5095890;28;20424;-71
2023/09/12 01:22:20;;;;;;;15.47;13.10;;;;;;;22.00;74.12;100506.91;5096893;28;20654;-71
2023/09/12 01:25:21;;;;;;;14.18;12.63;;;;;;;22.04;73.41;100507.25;5096203;28;20444;-71
2023/09/12 01:27:56;;;;;;;14.52;13.13;;;;;;;21.93;74.29;100495.31;5095389;28;20959;-71
2023/09/12 01:30:26;;;;;;;16.25;13.32;;;;;;;21.81;74.73;100490.94;5095691;28;20423;-71
2023/09/12 01:32:55;;;;;;;16.80;13.05;;;;;;;21.87;74.33;100484.53;5095679;28;20431;-71
2023/09/12 01:35:23;;;;;;;15.43;12.32;;;;;;;21.86;74.39;100486.41;5096645;28;20443;-71
2023/09/12 01:37:52;;;;;;;17.48;13.15;;;;;;;21.85;74.75;100486.66;5096125;28;20764;-71
2023/09/12 01:40:25;;;;;;;14.55;13.00;;;;;;;21.86;73.98;100496.47;5095662;28;20424;-71
2023/09/12 01:42:57;;;;;;;14.13;12.53;;;;;;;21.84;74.09;100493.19;5095352;28;20525;-71
2023/09/12 01:45:26;;;;;;;14.73;12.43;;;;;;;21.74;74.54;100485.63;5095443;28;20474;-71
2023/09/12 01:47:56;;;;;;;16.30;13.45;;;;;;;21.79;74.60;100493.06;5095437;28;20462;-71
2023/09/12 01:50:28;;;;;;;15.27;13.23;;;;;;;21.77;74.56;100496.03;5095376;28;20455;-71
2023/09/12 01:52:56;;;;;;;15.32;13.10;;;;;;;21.80;74.11;100498.28;5095678;28;20798;-71
2023/09/12 01:55:27;;;;;;;14.32;12.93;;;;;;;21.68;74.26;100497.44;5095270;28;20901;-71
2023/09/12 01:57:57;;;;;;;15.23;13.63;;;;;;;21.44;75.24;100506.72;5095569;28;20474;-71
2023/09/12 02:00:26;;;;;;;15.10;13.60;;;;;;;21.51;75.24;100512.84;5095084;28;20456;-71
2023/09/12 02:02:55;;;;;;;14.65;13.07;;;;;;;21.58;74.53;100514.41;5095169;28;20428;-71
2023/09/12 02:05:27;;;;;;;14.77;13.20;;;;;;;21.45;75.03;100514.66;5094888;28;20495;-71
2023/09/12 02:07:55;;;;;;;16.48;13.13;;;;;;;21.40;75.78;100516.44;5095388;28;20416;-71
2023/09/12 02:10:25;;;;;;;16.20;14.50;;;;;;;21.43;76.56;100511.34;5095074;28;20519;-71
2023/09/12 02:12:55;;;;;;;18.15;14.77;;;;;;;21.38;76.67;100518.53;5094790;28;20420;-71
2023/09/12 02:15:26;;;;;;;20.97;14.27;;;;;;;21.40;76.43;100528.16;5094443;28;20427;-71
2023/09/12 02:17:54;;;;;;;16.03;14.33;;;;;;;21.36;77.02;100526.13;5094729;28;20478;-71
2023/09/12 02:20:24;;;;;;;16.48;13.82;;;;;;;21.36;76.67;100532.41;5095405;28;20486;-71
2023/09/12 02:22:53;;;;;;;16.60;13.88;;;;;;;21.38;76.17;100543.88;5094243;28;20902;-71
2023/09/12 02:25:21;;;;;;;14.98;13.35;;;;;;;21.36;76.43;100548.75;5095320;28;20531;-71
2023/09/12 02:27:50;;;;;;;17.80;13.90;;;;;;;21.24;77.26;100543.28;5094690;28;20439;-71
2023/09/12 02:30:20;;;;;;;15.47;13.83;;;;;;;21.25;77.06;100549.56;5093255;28;20793;-71
2023/09/12 02:32:50;;;;;;;15.70;14.15;;;;;;;21.26;76.99;100555.84;5093975;28;20429;-71
2023/09/12 02:35:19;;;;;;;17.83;15.00;;;;;;;21.24;77.50;100550.63;5094324;28;20917;-71
2023/09/12 02:37:49;;;;;;;14.80;13.25;;;;;;;21.31;76.24;100553.22;5095133;28;20424;-71
2023/09/12 02:40:19;;;;;;;18.10;13.97;;;;;;;21.23;77.38;100551.69;5094590;28;20433;-71
2023/09/12 02:42:47;;;;;;;15.68;13.98;;;;;;;21.23;77.43;100544.34;5094194;28;20633;-71
2023/09/12 02:45:15;;;;;;;16.17;14.20;;;;;;;21.22;77.31;100559.03;5093783;28;20788;-71
2023/09/12 02:47:46;;;;;;;15.80;14.10;;;;;;;21.22;76.97;100556.31;5094968;28;20456;-71
2023/09/12 02:50:14;;;;;;;16.42;13.70;;;;;;;21.18;77.69;100562.44;5095213;28;20421;-71
2023/09/12 02:52:43;;;;;;;17.10;14.47;;;;;;;21.05;77.58;100574.34;5093909;28;20949;-71
2023/09/12 02:55:11;;;;;;;16.27;14.32;;;;;;;21.03;77.63;100587.34;5094653;28;20432;-71
2023/09/12 02:57:40;;;;;;;18.52;15.50;;;;;;;20.98;78.61;100597.28;5094173;28;20507;-71
2023/09/12 03:00:09;;;;;;;16.45;14.70;;;;;;;20.94;78.65;100604.25;5093697;28;20985;-71
2023/09/12 03:02:38;;;;;;;18.17;16.13;;;;;;;20.85;79.42;100594.75;5093954;28;20504;-71
2023/09/12 03:05:09;;;;;;;17.02;15.43;;;;;;;20.90;78.96;100608.47;5093857;28;20486;-71
2023/09/12 03:07:37;;;;;;;17.48;15.73;;;;;;;20.76;79.85;100596.94;5093986;28;20413;-71
2023/09/12 03:10:07;;;;;;;17.67;15.83;;;;;;;20.78;79.82;100605.72;5093701;28;20516;-71
2023/09/12 03:12:37;;;;;;;19.38;17.55;;;;;;;20.69;81.09;100597.03;5093640;28;20491;-71
2023/09/12 03:15:06;;;;;;;18.45;16.55;;;;;;;20.78;79.99;100583.97;5093977;28;20417;-71
2023/09/12 03:17:38;;;;;;;20.50;18.08;;;;;;;20.78;80.92;100580.41;5093350;28;20818;-71
2023/09/12 03:20:09;;;;;;;19.13;17.23;;;;;;;20.78;80.53;100583.13;5093581;28;20428;-71
2023/09/12 03:22:37;;;;;;;19.60;17.05;;;;;;;20.73;80.24;100571.03;5093468;28;20435;-71
2023/09/12 03:25:07;;;;;;;19.88;17.75;;;;;;;20.70;80.70;100560.63;5093462;28;20532;-71
2023/09/12 03:27:35;;;;;;;19.30;17.35;;;;;;;20.72;80.12;100563.94;5093434;28;20460;-71
2023/09/12 03:30:05;;;;;;;19.60;17.65;;;;;;;20.79;80.49;100552.94;5093981;28;20439;-71
2023/09/12 03:32:34;;;;;;;18.52;16.63;;;;;;;20.81;80.37;100550.00;5093050;28;20437;-71
2023/09/12 03:35:02;;;;;;;17.77;15.95;;;;;;;20.83;79.84;100553.31;5093283;28;20481;-71
2023/09/12 03:37:32;;;;;;;19.60;15.93;;;;;;;20.85;79.42;100567.53;5094393;28;20211;-71
2023/09/12 03:40:04;;;;;;;17.77;15.93;;;;;;;20.84;80.11;100568.59;5092495;28;20787;-71
2023/09/12 03:42:34;;;;;;;20.42;17.35;;;;;;;20.83;80.04;100569.66;5094210;28;20963;-71
2023/09/12 03:45:11;;;;;;;18.38;16.42;;;;;;;20.85;79.33;100568.38;5093172;28;20565;-71
2023/09/12 03:47:42;;;;;;;19.38;17.30;;;;;;;20.85;79.39;100573.81;5093255;28;20420;-71
2023/09/12 03:50:11;;;;;;;19.23;17.33;;;;;;;20.84;80.04;100576.75;5093613;28;20424;-72
2023/09/12 03:52:41;;;;;;;17.67;15.90;;;;;;;20.81;79.84;100601.72;5092633;28;20983;-71
2023/09/12 03:55:10;;;;;;;19.25;17.05;;;;;;;20.73;79.78;100611.84;5092871;28;20431;-71
2023/09/12 03:57:40;;;;;;;18.60;16.70;;;;;;;20.75;80.13;100627.97;5092979;28;20430;-71
2023/09/12 04:00:09;;;;;;;17.88;15.98;;;;;;;20.71;79.73;100665.69;5094209;28;20435;-71
2023/09/12 04:02:38;;;;;;;19.15;17.25;;;;;;;20.63;80.88;100663.25;5092729;28;20482;-71
2023/09/12 04:05:07;;;;;;;19.85;17.85;;;;;;;20.57;81.44;100675.06;5092404;28;20784;-71
2023/09/12 04:07:37;;;;;;;20.65;18.45;;;;;;;20.58;82.08;100678.59;5093233;28;20503;-71
2023/09/12 04:10:08;;;;;;;21.38;19.13;;;;;;;20.51;82.63;100664.25;5092955;28;20429;-71
2023/09/12 04:12:36;;;;;;;20.77;18.67;;;;;;;20.52;82.74;100669.44;5093779;28;20225;-71
2023/09/12 04:15:06;;;;;;;22.30;20.10;;;;;;;20.44;83.83;100668.94;5092933;28;20485;-71
2023/09/12 04:17:35;;;;;;;22.30;20.10;;;;;;;20.48;83.43;100657.34;5092660;28;20421;-71
2023/09/12 04:20:05;;;;;;;23.93;21.37;;;;;;;20.37;83.98;100666.28;5093627;28;20432;-71
2023/09/12 04:22:35;;;;;;;23.27;20.98;;;;;;;20.48;83.50;100664.72;5093014;28;20511;-71
2023/09/12 04:25:04;;;;;;;23.65;21.20;;;;;;;20.48;83.66;100641.03;5093044;28;20489;-71
2023/09/12 04:27:35;;;;;;;23.37;20.97;;;;;;;20.51;83.68;100620.72;5092761;28;20420;-71
2023/09/12 04:30:03;;;;;;;23.00;20.20;;;;;;;20.47;83.23;100604.03;5092614;28;20428;-71
2023/09/12 04:32:34;;;;;;;23.70;21.20;;;;;;;20.40;84.30;100578.81;5092052;28;20425;-71
2023/09/12 04:35:03;;;;;;;21.67;19.48;;;;;;;20.35;84.14;100566.94;5092845;28;20895;-71
2023/09/12 04:37:35;;;;;;;22.77;20.35;;;;;;;20.32;83.73;100562.81;5092951;28;20515;-71
2023/09/12 04:40:05;;;;;;;24.65;21.85;;;;;;;20.28;84.98;100569.75;5093219;28;20427;-71
2023/09/12 04:42:35;;;;;;;22.85;19.67;;;;;;;20.34;84.87;100570.75;5092256;28;20428;-72
2023/09/12 04:45:04;;;;;;;23.15;21.02;;;;;;;20.24;85.61;100571.22;5092390;28;20433;-72
2023/09/12 04:47:33;;;;;;;22.20;19.90;;;;;;;20.35;85.49;100584.09;5092071;28;20429;-72
2023/09/12 04:50:01;;;;;;;20.77;18.77;;;;;;;20.38;85.20;100586.34;5090681;28;20859;-72
2023/09/12 04:52:30;;;;;;;21.60;19.48;;;;;;;20.39;85.79;100576.31;5093341;28;20925;-72
2023/09/12 04:55:01;;;;;;;21.70;19.60;;;;;;;20.41;85.00;100561.41;5097641;28;20424;-72
2023/09/12 04:57:30;;;;;;;19.92;18.10;;;;;;;20.46;84.46;100563.47;5096314;28;20425;-72
2023/09/12 05:00:01;;;;;;;20.73;18.75;;;;;;;20.44;84.52;100565.59;5096273;28;20446;-72
2023/09/12 05:02:31;;;;;;;20.98;18.88;;;;;;;20.38;84.42;100561.88;5095897;28;20508;-72
2023/09/12 05:05:02;;;;;;;19.50;17.50;;;;;;;20.38;84.62;100556.44;5096309;28;20420;-72
2023/09/12 05:07:31;;;;;;;18.63;16.73;;;;;;;20.38;84.69;100551.00;5096167;28;20440;-72
2023/09/12 05:10:00;;;;;;;17.77;16.20;;;;;;;20.37;84.03;100537.66;5096281;28;20465;-72
2023/09/12 05:12:28;;;;;;;17.60;15.88;;;;;;;20.42;83.95;100537.78;5096062;28;20511;-72
2023/09/12 05:14:57;;;;;;;19.13;17.17;;;;;;;20.39;83.67;100536.34;5096190;28;20428;-72
2023/09/12 05:17:28;;;;;;;18.20;16.50;;;;;;;20.40;83.67;100537.19;5096190;28;20427;-72
2023/09/12 05:19:57;;;;;;;17.00;15.25;;;;;;;20.41;83.51;100547.81;5095984;28;20785;-72
2023/09/12 05:22:25;;;;;;;18.42;16.52;;;;;;;20.43;83.99;100559.31;5095857;28;20507;-72
2023/09/12 05:24:54;;;;;;;19.55;17.58;;;;;;;20.43;83.97;100553.88;5095861;28;20512;-72
2023/09/12 05:27:22;;;;;;;18.75;16.95;;;;;;;20.41;84.30;100566.84;5095785;28;20532;-72
2023/09/12 05:29:50;;;;;;;20.35;18.45;;;;;;;20.37;84.92;100576.56;5095920;28;20431;-72
2023/09/12 05:32:21;;;;;;;21.07;18.97;;;;;;;20.34;85.17;100593.31;5095623;28;20504;-72
2023/09/12 05:34:51;;;;;;;21.70;19.40;;;;;;;20.36;85.29;100612.97;5095751;28;20425;-72
2023/09/12 05:37:30;;;;;;;17.38;15.60;;;;;;;20.41;84.40;100629.41;5095275;28;20424;-72
2023/09/12 05:40:00;;;;;;;19.30;17.30;;;;;;;20.36;85.21;100628.44;5095900;28;20432;-72
2023/09/12 05:42:29;;;;;;;19.25;17.45;;;;;;;20.31;84.62;100629.09;5095657;28;20426;-72
2023/09/12 05:45:01;;;;;;;18.90;17.00;;;;;;;20.31;84.14;100637.25;5096068;28;20435;-72
2023/09/12 05:47:29;;;;;;;18.90;17.00;;;;;;;20.23;84.82;100629.38;5095678;28;20451;-72
2023/09/12 05:50:04;;;;;;;19.25;17.02;;;;;;;20.18;85.86;100656.41;5095253;28;20427;-71
2023/09/12 05:52:32;;;;;;;18.70;16.83;;;;;;;20.21;85.30;100645.06;5095202;28;20412;-72
2023/09/12 05:55:01;;;;;;;19.70;17.80;;;;;;;20.21;85.34;100647.78;5095281;28;20428;-72
2023/09/12 05:57:33;;;;;;;19.70;17.70;;;;;;;20.25;85.05;100659.88;5095210;28;20417;-72
2023/09/12 06:00:10;;;;;;;18.47;16.77;;;;;;;20.27;85.41;100674.13;5095251;28;20425;-72
2023/09/12 06:02:38;;;;;;;24.58;18.63;;;;;;;20.20;86.85;100689.66;5095023;28;20421;-72
2023/09/12 06:05:09;;;;;;;20.25;17.40;;;;;;;20.18;86.59;100683.59;5094613;28;20425;-72
2023/09/12 06:07:39;;;;;;;20.50;18.30;;;;;;;20.11;86.84;100669.22;5095020;28;20444;-72
2023/09/12 06:10:10;;;;;;;19.67;17.48;;;;;;;20.14;87.44;100663.34;5095059;28;20515;-72
2023/09/12 06:12:38;;;;;;;18.75;16.95;;;;;;;20.11;88.04;100670.06;5094812;28;20462;-72
2023/09/12 06:15:09;;;;;;;18.92;17.00;;;;;;;20.11;87.97;100680.09;5094810;28;20432;-72
2023/09/12 06:17:38;;;;;;;17.00;15.30;;;;;;;20.09;87.28;100717.56;5094925;28;20440;-72
2023/09/12 06:20:09;;;;;;;17.48;14.38;;;;;;;20.09;86.78;100731.97;5094764;28;20420;-72
2023/09/12 06:22:38;;;;;;;19.90;14.38;;;;;;;20.09;86.69;100756.44;5094789;28;20543;-72
2023/09/12 06:25:07;;;;;;;21.05;15.15;;;;;;;20.02;87.40;100757.53;5094457;28;20432;-72
2023/09/12 06:27:35;;;;;;;23.25;16.27;;;;;;;20.02;88.21;100760.25;5094448;28;20455;-72
2023/09/12 06:30:05;;;;;;;19.35;16.63;;;;;;;20.03;87.60;100748.34;5094787;28;20425;-72
2023/09/12 06:32:36;;;;;;;23.77;20.00;;;;;;;20.00;88.54;100706.13;5094532;28;20977;-72
2023/09/12 06:35:06;;;;;;;24.63;21.35;;;;;;;19.98;89.17;100682.94;5094738;28;20482;-72
2023/09/12 06:37:37;;;;;;;22.00;19.65;;;;;;;20.00;89.27;100680.84;5094874;28;20420;-71
2023/09/12 06:40:07;;;;;;;25.25;22.60;;;;;;;19.95;90.57;100673.38;5094637;28;20505;-71
2023/09/12 06:42:36;;;;;;;24.48;21.92;;;;;;;19.96;90.73;100661.44;5094476;28;20429;-71
2023/09/12 06:45:05;;;;;;;26.05;22.35;;;;;;;19.96;90.66;100644.31;5094558;28;20432;-71
2023/09/12 06:47:33;;;;;;;24.50;22.08;;;;;;;19.86;91.55;100628.53;5095297;28;20472;-71
2023/09/12 06:50:02;;;;;;;23.40;21.00;;;;;;;19.81;91.17;100612.03;5094086;28;20466;-71
2023/09/12 06:52:35;;;;;;;22.52;20.00;;;;;;;19.80;91.72;100606.81;5094343;28;20481;-71
2023/09/12 06:55:04;;;;;;;21.88;19.50;;;;;;;19.80;91.45;100606.81;5094274;28;20425;-71
2023/09/12 06:57:33;;;;;;;22.27;20.08;;;;;;;19.82;91.06;100600.13;5094210;28;20420;-72
2023/09/12 07:00:06;;;;;;;22.30;20.00;;;;;;;19.78;91.37;100611.66;5094303;28;20520;-72
2023/09/12 07:02:34;;;;;;;19.35;17.35;;;;;;;19.77;90.78;100605.38;5094264;28;20821;-72
2023/09/12 07:05:04;;;;;;;19.67;17.70;;;;;;;19.70;90.94;100597.31;5094449;28;20425;-72
2023/09/12 07:07:34;;;;;;;20.50;18.17;;;;;;;19.71;91.39;100598.13;5093551;28;20882;-72
2023/09/12 07:10:04;;;;;;;18.35;16.45;;;;;;;19.82;91.29;100608.28;5094618;28;20420;-72
2023/09/12 07:12:50;;;;;;;18.55;16.65;;;;;;;19.76;91.89;100584.69;5093449;28;20894;-72
2023/09/12 07:15:22;;;;;;;18.60;16.33;;;;;;;19.74;90.88;100589.53;5093032;28;20461;-72
2023/09/12 07:17:56;;;;;;;19.92;17.85;;;;;;;19.65;91.93;100589.00;5094200;28;20417;-72
2023/09/12 07:20:24;;;;;;;20.52;18.45;;;;;;;19.65;91.96;100575.44;5093843;28;20826;-72
2023/09/12 07:22:56;;;;;;;20.45;18.48;;;;;;;19.63;92.20;100555.78;5093233;28;20425;-72
2023/09/12 07:25:24;;;;;;;22.23;20.13;;;;;;;19.67;92.55;100546.16;5093584;28;20420;-72
2023/09/12 07:27:53;;;;;;;24.10;21.70;;;;;;;19.68;93.84;100544.28;5093406;28;20444;-72
2023/09/12 07:30:23;;;;;;;24.55;22.05;;;;;;;19.72;93.23;100543.59;5093865;28;20428;-72
2023/09/12 07:32:52;;;;;;;22.13;20.08;;;;;;;19.72;93.10;100532.75;5093344;28;20435;-72
2023/09/12 07:35:23;;;;;;;22.15;20.00;;;;;;;19.65;92.08;100515.69;5093434;28;20425;-71
2023/09/12 07:37:53;;;;;;;22.05;19.75;;;;;;;19.68;92.29;100509.78;5096437;28;20448;-71
2023/09/12 07:40:22;;;;;;;22.10;19.83;;;;;;;19.71;91.70;100505.78;5100363;28;20459;-71
2023/09/12 07:42:50;;;;;;;22.35;20.15;;;;;;;19.72;91.51;100516.44;5095331;28;20431;-72
2023/09/12 07:45:20;;;;;;;24.40;21.88;;;;;;;19.74;92.44;100518.91;5095661;28;20432;-73
2023/09/12 07:47:49;;;;;;;24.70;22.27;;;;;;;19.77;91.76;100525.78;5094032;28;20451;-74
2023/09/12 07:50:19;;;;;;;26.73;24.05;;;;;;;19.76;92.77;100551.31;5094867;28;20451;-73
2023/09/12 07:52:47;;;;;;;27.52;24.63;;;;;;;19.77;92.52;100564.63;5094236;28;20452;-73
2023/09/12 07:55:17;;;;;;;25.40;22.83;;;;;;;19.83;92.87;100576.53;5095112;28;20737;-73
2023/09/12 07:57:46;;;;;;;27.33;24.65;;;;;;;19.78;93.21;100579.91;5094598;28;20451;-73
2023/09/12 08:00:16;;;;;;;26.88;24.08;;;;;;;19.85;93.18;100590.69;5094188;28;20844;-73
2023/09/12 08:02:45;;;;;;;20.23;18.20;;;;;;;19.92;92.86;100605.03;5094628;28;20225;-73
2023/09/12 08:05:14;;;;;;;28.38;25.58;;;;;;;19.96;94.25;100603.56;5093965;28;20425;-72
2023/09/12 08:07:44;;;;;;;28.73;25.83;;;;;;;19.97;94.43;100613.34;5092886;28;20928;-73
2023/09/12 08:10:13;;;;;;;30.42;27.42;;;;;;;20.00;95.93;100612.91;5093125;28;20858;-73
2023/09/12 08:12:43;;;;;;;27.10;24.38;;;;;;;19.97;94.72;100597.03;5093710;28;20432;-73
2023/09/12 08:15:11;;;;;;;25.30;22.88;;;;;;;20.01;93.80;100598.25;5093412;28;20869;-73
2023/09/12 08:17:40;;;;;;;26.50;24.17;;;;;;;20.08;93.86;100609.88;5093505;28;20794;-73
2023/09/12 08:20:10;;;;;;;26.23;23.77;;;;;;;20.11;93.44;100620.31;5093655;28;20432;-73
2023/09/12 08:22:41;;;;;;;24.45;22.13;;;;;;;20.11;92.11;100642.03;5093731;28;20832;-72
2023/09/12 08:25:14;;;;;;;22.73;20.63;;;;;;;20.13;90.58;100661.69;5092738;28;20523;-73
2023/09/12 08:27:44;;;;;;;24.95;22.70;;;;;;;20.13;91.71;100676.13;5092991;28;20490;-72
2023/09/12 08:30:16;;;;;;;25.08;22.70;;;;;;;20.13;92.10;100694.31;5092760;28;20465;-72
2023/09/12 08:32:44;;;;;;;28.75;26.05;;;;;;;20.14;92.79;100702.22;5092277;28;20825;-71
2023/09/12 08:35:13;;;;;;;25.90;23.40;;;;;;;20.18;92.98;100710.78;5092657;28;20429;-72
2023/09/12 08:37:42;;;;;;;25.20;22.70;;;;;;;20.18;92.85;100718.94;5093729;28;20456;-73
2023/09/12 08:40:12;;;;;;;22.63;20.63;;;;;;;20.13;91.53;100716.91;5092911;28;20854;-73
2023/09/12 08:42:43;;;;;;;24.80;22.33;;;;;;;20.15;92.22;100722.09;5093472;28;20439;-73
2023/09/12 08:45:14;;;;;;;25.38;22.95;;;;;;;20.22;93.11;100731.03;5093051;28;20434;-73
2023/09/12 08:47:47;;;;;;;24.10;21.70;;;;;;;20.24;93.91;100745.22;5092863;28;20472;-73
2023/09/12 08:50:17;;;;;;;24.52;22.30;;;;;;;20.21;93.61;100740.22;5092537;28;20508;-73
2023/09/12 08:52:48;;;;;;;24.85;22.60;;;;;;;20.25;93.13;100745.00;5092370;28;20430;-73
2023/09/12 08:55:36;;;;;;;29.27;26.48;;;;;;;20.26;92.17;100751.28;5092902;28;20442;-73
2023/09/12 08:58:07;;;;;;;27.70;25.02;;;;;;;20.30;92.70;100738.94;5092967;28;20424;-73
2023/09/12 09:00:37;;;;;;;26.58;23.98;;;;;;;20.30;92.32;100740.81;5093093;28;20436;-73
2023/09/12 09:03:06;;;;;;;28.03;25.23;;;;;;;20.30;93.33;100747.09;5092414;28;20432;-72
2023/09/12 09:05:36;;;;;;;27.73;24.83;;;;;;;20.29;93.41;100752.75;5091979;28;20433;-72
2023/09/12 09:08:07;;;;;;;25.20;22.80;;;;;;;20.28;93.52;100751.91;5092268;28;20448;-72
2023/09/12 09:10:36;;;;;;;23.53;21.17;;;;;;;20.32;93.20;100742.25;5093306;28;20243;-72
2023/09/12 09:13:21;;;;;;;26.17;23.50;;;;;;;20.32;92.77;100734.09;5091879;28;20768;-73
2023/09/12 09:15:49;;;;;;;25.08;22.60;;;;;;;20.33;93.28;100741.22;5092316;28;20464;-73
2023/09/12 09:18:18;;;;;;;33.03;29.65;;;;;;;20.37;93.86;100747.88;5093067;28;20428;-71
2023/09/12 09:20:49;;;;;;;24.58;22.17;;;;;;;20.35;93.72;100758.13;5092275;28;20435;-72
2023/09/12 09:23:18;;;;;;;24.58;22.10;;;;;;;20.33;94.40;100760.25;5091995;28;20417;-72
2023/09/12 09:25:54;;;;;;;26.10;23.60;;;;;;;20.37;94.89;100763.34;5092162;28;20504;-72
2023/09/12 09:28:26;;;;;;;25.33;22.92;;;;;;;20.36;95.31;100770.66;5092142;28;20541;-72
2023/09/12 09:30:56;;;;;;;25.27;22.77;;;;;;;20.34;95.12;100782.81;5092839;28;20455;-72
2023/09/12 09:33:26;;;;;;;25.60;23.13;;;;;;;20.26;96.20;100786.63;5092201;28;20436;-72
2023/09/12 09:36:05;;;;;;;24.30;21.77;;;;;;;20.23;94.27;100789.78;5092149;28;20506;-68
2023/09/12 09:38:37;;;;;;;24.92;22.73;;;;;;;20.28;94.60;100800.84;5092854;28;20941;-71
2023/09/12 09:41:06;;;;;;;23.70;21.40;;;;;;;20.33;94.27;100798.31;5095761;28;20429;-70
2023/09/12 09:43:36;;;;;;;21.75;19.65;;;;;;;20.35;94.40;100785.31;5095907;28;20456;-71
2023/09/12 09:46:05;;;;;;;22.20;19.88;;;;;;;20.31;93.92;100778.66;5095225;28;20895;-71
2023/09/12 09:48:34;;;;;;;21.23;18.95;;;;;;;20.36;94.22;100775.25;5096140;28;20462;-71
2023/09/12 09:51:04;;;;;;;20.27;18.35;;;;;;;20.30;93.80;100757.13;5095623;28;20421;-71
2023/09/12 09:53:37;;;;;;;19.20;17.13;;;;;;;20.27;93.11;100768.44;5095043;28;20920;-71
2023/09/12 09:56:12;;;;;;;16.05;14.60;;;;;;;20.33;93.07;100760.25;5095552;28;20474;-71
2023/09/12 09:58:48;;;;;;;12.65;11.45;;;;;;;20.30;91.04;100760.69;5095400;28;20417;-70
2023/09/12 10:01:20;;;;;;;10.20;9.20;;;;;;;20.27;89.69;100761.13;5095177;28;20417;-71
2023/09/12 10:03:49;;;;;;;9.65;8.68;;;;;;;20.21;88.70;100765.53;5094985;28;20432;-71
2023/09/12 10:06:19;;;;;;;8.83;7.97;;;;;;;20.22;88.89;100766.38;5095372;28;20876;-71
2023/09/12 10:08:51;;;;;;;9.10;8.30;;;;;;;20.23;88.82;100760.72;5094895;28;20452;-71
2023/09/12 10:11:23;;;;;;;9.02;8.13;;;;;;;20.10;87.03;100758.09;5095366;28;20511;-71
2023/09/12 10:13:55;;;;;;;9.07;8.18;;;;;;;20.17;87.65;100755.34;5095010;28;21028;-71
2023/09/12 10:16:26;;;;;;;8.10;7.30;;;;;;;20.12;86.95;100752.44;5094750;28;20818;-71
2023/09/12 10:19:00;;;;;;;9.07;8.18;;;;;;;20.13;88.37;100749.53;5095710;28;20455;-71
2023/09/12 10:21:32;;;;;;;9.70;8.02;;;;;;;20.15;88.16;100746.56;5095758;28;20431;-70
2023/09/12 10:24:03;;;;;;;8.70;7.90;;;;;;;20.15;88.21;100730.25;5095034;28;20508;-70
2023/09/12 10:26:34;;;;;;;9.60;8.40;;;;;;;20.23;88.63;100735.41;5094883;28;20424;-70
2023/09/12 10:29:06;;;;;;;9.02;8.13;;;;;;;20.24;88.05;100742.50;5095203;28;20470;-71
2023/09/12 10:31:35;;;;;;;8.97;8.10;;;;;;;20.18;87.15;100746.09;5094867;28;20989;-71
2023/09/12 10:34:09;;;;;;;10.60;9.60;;;;;;;20.21;86.97;100749.22;5094051;28;20435;-68
2023/09/12 10:36:40;;;;;;;10.10;9.25;;;;;;;20.12;86.15;100738.84;5094494;28;20952;-73
2023/09/12 10:39:11;;;;;;;9.60;8.77;;;;;;;20.07;86.66;100736.78;5094773;28;20428;-74
2023/09/12 10:41:40;;;;;;;9.63;8.73;;;;;;;20.09;87.20;100742.84;5094921;28;20424;-74
2023/09/12 10:44:12;;;;;;;9.07;8.18;;;;;;;20.13;86.60;100748.69;5093954;28;20515;-74
2023/09/12 10:46:42;;;;;;;8.63;7.75;;;;;;;20.20;87.29;100742.13;5095170;28;20428;-74
2023/09/12 10:49:15;;;;;;;7.90;7.20;;;;;;;20.22;86.69;100747.34;5095031;28;20448;-73
2023/09/12 10:51:45;;;;;;;8.32;7.57;;;;;;;20.24;88.14;100745.22;5093514;28;20500;-73
2023/09/12 10:54:15;;;;;;;8.48;7.60;;;;;;;20.26;88.69;100740.41;5093807;28;20432;-74
2023/09/12 10:56:50;;;;;;;7.90;7.20;;;;;;;19.99;86.95;100728.94;5096371;28;20205;-74
2023/09/12 10:59:25;;;;;;;7.57;6.93;;;;;;;20.04;86.72;100741.84;5094250;28;20420;-74
2023/09/12 11:01:55;;;;;;;8.55;7.85;;;;;;;20.06;87.37;100732.44;5093825;28;20902;-73
2023/09/12 11:04:34;;;;;;;8.32;7.63;;;;;;;20.11;86.95;100727.16;5093934;28;20493;-73
2023/09/12 11:07:23;;;;;;;8.52;7.60;;;;;;;20.12;87.75;100736.13;5093788;28;20437;-74
2023/09/12 11:10:18;;;;;;;8.07;7.30;;;;;;;20.11;87.60;100753.50;5092216;28;20527;-73
2023/09/12 11:12:48;;;;;;;7.93;7.22;;;;;;;20.14;87.43;100762.03;5093611;28;20424;-73
2023/09/12 11:15:21;;;;;;;8.68;7.78;;;;;;;20.12;87.75;100752.44;5094119;28;20421;-73
2023/09/12 11:17:50;;;;;;;8.27;7.47;;;;;;;20.16;87.61;100757.22;5093809;28;20763;-74
2023/09/12 11:20:19;;;;;;;8.00;7.30;;;;;;;20.16;87.70;100750.94;5093628;28;20428;-74
2023/09/12 11:22:52;;;;;;;7.97;7.28;;;;;;;20.14;87.31;100750.31;5093515;28;20959;-74
2023/09/12 11:25:23;;;;;;;7.82;7.13;;;;;;;20.16;86.95;100756.38;5093638;28;20421;-74
2023/09/12 11:28:05;;;;;;;7.60;7.00;;;;;;;20.20;87.19;100749.47;5093561;28;20416;-74